Semaine O'tomnale - Régionale MD Scaer, foret de Coatloch (29) - H bis

Date : 31/10/2012
Distance : 2,000 km

Place Nom Licence Catégorie Club Temps min/km CN à J-60 Points Différence Nouveau CN
1 DROIN Solène 17925 D16 4201RA 0:20:51 10'25 5152 5872 +720 5739
2 GIRARD Lucille 19689 D16 3705CE 0:24:32 12'16 5057 4990 -67 5056
3 BODY Mathilde 10184 D16 7305RA 0:24:50 12'25 5328 4930 -398 5280
4 PETER-JAN Lucile 19276 D16 3705CE 0:25:22 12'41 4539 4826 +287 4678
5 BORNARD Julie 9402 D16 7305RA 0:25:22 12'41 4755 4826 +71 4633
6 DELENNE Camilla 13800 D16 1307PR 0:25:49 12'54 4132 4742 +610 4548
7 GUILLEMET Océane 22819 D16 3318AQ 0:26:30 13'15 4732 4620 -112 4923
8 LUTHRINGER Coline 10091 D16 8809LO 0:26:46 13'23 4381 4574 +193 4381
9 BASSET Fiona 23384 D16 6911RA 0:27:24 13'42 4275 4468 +193 4528
10 HABERKORN Chloé 10396 D16 2105BO 0:27:48 13'54 5675 4404 -1271 5652
11 BEAUVIR Maëlle 12709 D16 3502BR 0:29:15 14'37 4940 4186 -754 5321
12 FOL Loreline 16393 D16 3105MP 0:29:41 14'50 4263 4124 -139 4326
13 BERRARD Anna 19762 D16 2607RA 0:30:19 15'09 4423 4038 -385 4702
14 STARKE Paula 26505 D16 6913RA 0:30:34 15'17 4005 4259
15 ROULLEAUX Julie 11559 D16 9105IF 0:31:15 15'37 4799 3918 -881 4854
16 GUINOT Marion 15018 D16 2108BO 0:31:37 15'48 3262 3872 +610 3868
17 VALETTE Marion 10430 D16 6913RA 0:32:02 16'01 3868 3822 -46 4103
18 DELAPORTE Léa 20067 D16 5116CA 0:32:28 16'14 3241 3771 +530 3673
19 MOLINIER Caroline 6487 D16 9105IF 0:33:31 16'45 4246 3653 -593 4334
20 CRETE Juliette 18829 D16 6008PI 0:33:43 16'51 3141 3631 +490 3717
21 BESTEL Sandra 10758 D16 9105IF 0:33:55 16'57 3840 3610 -230 3911
22 RIVOLLIER Isaline 22451 D16 4201RA 0:34:01 17'00 4296 3599 -697 4202
23 ELIAS Pauline 16137 D16 1307PR 0:34:44 17'22 3756 3525 -231 4003
24 DUQUENNE Audrey 23885 D16 5907NO 0:34:54 17'27 3734 3508 -226 4021
25 VASILYEVA Véronika 25923 D16 5402LO 0:35:07 17'33 2762 3486 +724 3635
26 MOUSSU Sarah 22301 D16 3318AQ 0:35:41 17'50 3858 3431 -427 3901
27 GUILLOT Jeanne 20364 D16 7004FC 0:39:41 19'50 3219 3085 -134 3117
28 SOUAN Cécile 26423 D16 7707IF 0:40:43 20'21 2051 3007 +956 2791
29 LECUYER Manon 22549 D16 5907NO 0:41:38 20'49 2796 2941 +145 3317
30 FIGUIERE Lucile 10087 D16 7109BO 0:42:12 21'06 2713 2901 +188 3119
31 PICAZO Marie 16555 D16 8405PR 0:42:13 21'06 4159 2900 -1259 4260
32 BERCHE Léa 24420 D16 5907NO 0:42:24 21'12 3053 2887 -166 2916
33 DELVA Lou 26620 D16 7407RA 0:42:52 21'26 2856 2167
34 TEGNY Laurine 23659 D16 6205NO 0:43:50 21'55 2910 2793 -117 2790
35 DESCOURVIERES Perrine 25550 D16 7407RA 0:46:15 23'07 1928 2647 +719 2148
36 DUDOUT Malaurine 24516 D16 2704NM 0:46:39 23'19 2541 2624 +83 3532
37 DOUTRELANT Justine 26929 D16 5907NO 0:47:54 23'57 2556 2219
38 DASILVA Auriane 12758 D16 7707IF 0:48:12 24'06 2538 2540 +2 2690
39 ALLE Capucine 25922 D16 5402LO 0:49:38 24'49 1257 2467 +1210 2264
40 MOUGENOT LEA 25662 D16 6503MP 0:52:45 26'22 2321 1717
41 BULLIER Alisson 23427 D16 0207PI 0:53:20 26'40 2590 2296 -294 2920
42 JEANNERET Julie 20160 D16 7109BO 0:54:55 27'27 2196 2229 +33 2617
43 GARAT Frédérique 25929 D21 5909NO 0:55:35 27'47 2203 1833
44 MOREL Fanny 25556 D16 9502IF 1:07:01 33'30 1838 1827 -11 2048
45 GIRARD Florence 22478 D45 2508FC 1:07:26 33'43 1923 1816 -107 2030
46 FIGARD Cécile 26475 D16 7707IF 1:10:20 35'10 0 1741 1545
DUFOUR Marie 26623 D16 7407RA abandon None 0 1857
BUCAMP Noémie 25200 D16 6008PI pm None 2055 0 2817
MORIN Lucie 23393 D16 2208BR pm None 1549 0 1549